Aviation Digital Data Service (ADDS)

Output produced by METARs form (1131 UTC 25 June 2019)
found at http://www.aviationweather.gov/metar/data/
 
Forecast for: BIRK (REYKJAVIK (NOTAM, IS)
Text: TAF BIRK 251011Z 2512/2612 23012KT 9999 SCT010 BKN015 OVC025 TX13/2518Z TN10/2603Z
Forecast period: 1200 UTC 25 June 2019 to 1200 UTC 26 June 2019
Forecast type: FROM: standard forecast or significant change
Winds: from the SW (230 degrees) at 14 MPH (12 knots; 6.2 m/s)
Visibility: 6 or more miles 10+ km)
Ceiling: 1500 feet AGL
Clouds: scattered clouds at 1000 feet AGL
broken clouds at 1500 feet AGL
overcast cloud deck at 2500 feet AGL
Weather: no significant weather forecast for this period
Text: TEMPO 2512/2612 5000 -RADZ BR BKN005 OVC010
Forecast period: 1200 UTC 25 June 2019 to 1200 UTC 26 June 2019
Forecast type: TEMPORARY: The following changes expected for less than half the time period
Visibility: 3 miles (5 km)
Ceiling: 500 feet AGL
Clouds: broken clouds at 500 feet AGL
overcast cloud deck at 1000 feet AGL
Weather: -RA -DZ BR  (light rain, light drizzle, mist)